sensor_id;sensor_type;location;lat;lon;timestamp;P1;durP1;ratioP1;P2;durP2;ratioP2
2289;SDS011;1153;47.986;7.898;2023-12-20T00:01:14;0.30;;;0.10;;
2289;SDS011;1153;47.986;7.898;2023-12-20T00:03:39;0.50;;;0.20;;
2289;SDS011;1153;47.986;7.898;2023-12-20T00:06:04;0.43;;;0.20;;
2289;SDS011;1153;47.986;7.898;2023-12-20T00:08:29;0.50;;;0.20;;
2289;SDS011;1153;47.986;7.898;2023-12-20T00:10:54;0.50;;;0.20;;
2289;SDS011;1153;47.986;7.898;2023-12-20T00:13:20;0.40;;;0.20;;
2289;SDS011;1153;47.986;7.898;2023-12-20T00:15:45;0.60;;;0.20;;
2289;SDS011;1153;47.986;7.898;2023-12-20T00:18:10;0.80;;;0.20;;
2289;SDS011;1153;47.986;7.898;2023-12-20T00:20:35;0.50;;;0.20;;
2289;SDS011;1153;47.986;7.898;2023-12-20T00:23:00;0.40;;;0.20;;
2289;SDS011;1153;47.986;7.898;2023-12-20T00:25:26;0.40;;;0.20;;
2289;SDS011;1153;47.986;7.898;2023-12-20T00:27:51;0.50;;;0.20;;
2289;SDS011;1153;47.986;7.898;2023-12-20T00:30:16;0.40;;;0.20;;
2289;SDS011;1153;47.986;7.898;2023-12-20T00:32:41;0.40;;;0.20;;
2289;SDS011;1153;47.986;7.898;2023-12-20T00:35:11;1.70;;;0.20;;
2289;SDS011;1153;47.986;7.898;2023-12-20T00:37:36;0.40;;;0.20;;
2289;SDS011;1153;47.986;7.898;2023-12-20T00:40:01;0.40;;;0.20;;
2289;SDS011;1153;47.986;7.898;2023-12-20T00:42:27;0.40;;;0.13;;
2289;SDS011;1153;47.986;7.898;2023-12-20T00:44:52;0.70;;;0.20;;
2289;SDS011;1153;47.986;7.898;2023-12-20T00:47:17;0.40;;;0.20;;
2289;SDS011;1153;47.986;7.898;2023-12-20T00:49:43;0.50;;;0.20;;
2289;SDS011;1153;47.986;7.898;2023-12-20T00:52:08;0.43;;;0.20;;
2289;SDS011;1153;47.986;7.898;2023-12-20T00:54:33;0.30;;;0.20;;
2289;SDS011;1153;47.986;7.898;2023-12-20T00:56:59;0.40;;;0.20;;
2289;SDS011;1153;47.986;7.898;2023-12-20T00:59:24;1.80;;;0.30;;
2289;SDS011;1153;47.986;7.898;2023-12-20T01:01:49;0.50;;;0.20;;
2289;SDS011;1153;47.986;7.898;2023-12-20T01:04:15;0.40;;;0.20;;
2289;SDS011;1153;47.986;7.898;2023-12-20T01:06:40;0.60;;;0.20;;
2289;SDS011;1153;47.986;7.898;2023-12-20T01:09:05;0.50;;;0.30;;
2289;SDS011;1153;47.986;7.898;2023-12-20T01:11:30;0.50;;;0.20;;
2289;SDS011;1153;47.986;7.898;2023-12-20T01:13:55;0.50;;;0.20;;
2289;SDS011;1153;47.986;7.898;2023-12-20T01:16:20;0.68;;;0.22;;
2289;SDS011;1153;47.986;7.898;2023-12-20T01:18:45;0.50;;;0.20;;
2289;SDS011;1153;47.986;7.898;2023-12-20T01:21:11;0.40;;;0.20;;
2289;SDS011;1153;47.986;7.898;2023-12-20T01:23:36;0.40;;;0.20;;
2289;SDS011;1153;47.986;7.898;2023-12-20T01:26:01;0.40;;;0.20;;
2289;SDS011;1153;47.986;7.898;2023-12-20T01:28:27;0.70;;;0.20;;
2289;SDS011;1153;47.986;7.898;2023-12-20T01:30:52;0.40;;;0.20;;
2289;SDS011;1153;47.986;7.898;2023-12-20T01:33:17;0.40;;;0.20;;
2289;SDS011;1153;47.986;7.898;2023-12-20T01:35:43;1.07;;;1.07;;
2289;SDS011;1153;47.986;7.898;2023-12-20T01:38:08;0.40;;;0.20;;
2289;SDS011;1153;47.986;7.898;2023-12-20T01:40:33;0.40;;;0.10;;
2289;SDS011;1153;47.986;7.898;2023-12-20T01:43:04;0.40;;;0.20;;
2289;SDS011;1153;47.986;7.898;2023-12-20T01:45:30;0.40;;;0.20;;
2289;SDS011;1153;47.986;7.898;2023-12-20T01:47:55;0.30;;;0.10;;
2289;SDS011;1153;47.986;7.898;2023-12-20T01:50:21;1.60;;;0.20;;
2289;SDS011;1153;47.986;7.898;2023-12-20T01:52:46;0.40;;;0.13;;
2289;SDS011;1153;47.986;7.898;2023-12-20T01:55:11;0.40;;;0.20;;
2289;SDS011;1153;47.986;7.898;2023-12-20T01:57:40;0.40;;;0.20;;
2289;SDS011;1153;47.986;7.898;2023-12-20T02:00:06;0.30;;;0.10;;
2289;SDS011;1153;47.986;7.898;2023-12-20T02:02:31;0.50;;;0.20;;
2289;SDS011;1153;47.986;7.898;2023-12-20T02:04:56;0.40;;;0.20;;
2289;SDS011;1153;47.986;7.898;2023-12-20T02:07:22;0.30;;;0.10;;
2289;SDS011;1153;47.986;7.898;2023-12-20T02:09:47;0.40;;;0.20;;
2289;SDS011;1153;47.986;7.898;2023-12-20T02:12:12;0.50;;;0.20;;
2289;SDS011;1153;47.986;7.898;2023-12-20T02:14:37;0.40;;;0.10;;
2289;SDS011;1153;47.986;7.898;2023-12-20T02:17:03;0.50;;;0.20;;
2289;SDS011;1153;47.986;7.898;2023-12-20T02:19:28;0.40;;;0.10;;
2289;SDS011;1153;47.986;7.898;2023-12-20T02:22:04;0.40;;;0.20;;
2289;SDS011;1153;47.986;7.898;2023-12-20T02:24:29;0.40;;;0.20;;
2289;SDS011;1153;47.986;7.898;2023-12-20T02:26:54;0.30;;;0.10;;
2289;SDS011;1153;47.986;7.898;2023-12-20T02:29:20;0.30;;;0.10;;
2289;SDS011;1153;47.986;7.898;2023-12-20T02:31:45;0.40;;;0.20;;
2289;SDS011;1153;47.986;7.898;2023-12-20T02:34:10;0.50;;;0.20;;
2289;SDS011;1153;47.986;7.898;2023-12-20T02:36:35;0.40;;;0.20;;
2289;SDS011;1153;47.986;7.898;2023-12-20T02:39:00;0.40;;;0.20;;
2289;SDS011;1153;47.986;7.898;2023-12-20T02:41:25;0.40;;;0.10;;
2289;SDS011;1153;47.986;7.898;2023-12-20T02:43:51;0.40;;;0.20;;
2289;SDS011;1153;47.986;7.898;2023-12-20T02:46:16;0.30;;;0.10;;
2289;SDS011;1153;47.986;7.898;2023-12-20T02:48:42;0.33;;;0.10;;
2289;SDS011;1153;47.986;7.898;2023-12-20T02:51:07;0.40;;;0.10;;
2289;SDS011;1153;47.986;7.898;2023-12-20T02:53:32;0.40;;;0.17;;
2289;SDS011;1153;47.986;7.898;2023-12-20T02:55:57;0.50;;;0.20;;
2289;SDS011;1153;47.986;7.898;2023-12-20T02:58:22;0.40;;;0.10;;
2289;SDS011;1153;47.986;7.898;2023-12-20T03:00:47;0.40;;;0.20;;
2289;SDS011;1153;47.986;7.898;2023-12-20T03:03:13;0.40;;;0.10;;
2289;SDS011;1153;47.986;7.898;2023-12-20T03:05:38;0.30;;;0.10;;
2289;SDS011;1153;47.986;7.898;2023-12-20T03:08:03;0.40;;;0.20;;
2289;SDS011;1153;47.986;7.898;2023-12-20T03:10:28;0.40;;;0.20;;
2289;SDS011;1153;47.986;7.898;2023-12-20T03:12:53;0.40;;;0.13;;
2289;SDS011;1153;47.986;7.898;2023-12-20T03:15:18;0.30;;;0.10;;
2289;SDS011;1153;47.986;7.898;2023-12-20T03:17:44;0.40;;;0.17;;
2289;SDS011;1153;47.986;7.898;2023-12-20T03:20:09;0.40;;;0.20;;
2289;SDS011;1153;47.986;7.898;2023-12-20T03:22:34;0.40;;;0.10;;
2289;SDS011;1153;47.986;7.898;2023-12-20T03:25:00;0.40;;;0.10;;
2289;SDS011;1153;47.986;7.898;2023-12-20T03:27:25;0.43;;;0.10;;
2289;SDS011;1153;47.986;7.898;2023-12-20T03:29:50;0.43;;;0.20;;
2289;SDS011;1153;47.986;7.898;2023-12-20T03:32:15;0.43;;;0.20;;
2289;SDS011;1153;47.986;7.898;2023-12-20T03:34:40;0.40;;;0.10;;
2289;SDS011;1153;47.986;7.898;2023-12-20T03:37:05;0.40;;;0.20;;
2289;SDS011;1153;47.986;7.898;2023-12-20T03:39:31;0.70;;;0.43;;
2289;SDS011;1153;47.986;7.898;2023-12-20T03:41:56;0.77;;;0.20;;
2289;SDS011;1153;47.986;7.898;2023-12-20T03:44:21;0.40;;;0.20;;
2289;SDS011;1153;47.986;7.898;2023-12-20T03:46:46;0.37;;;0.20;;
2289;SDS011;1153;47.986;7.898;2023-12-20T03:49:12;0.40;;;0.20;;
2289;SDS011;1153;47.986;7.898;2023-12-20T03:51:37;0.40;;;0.10;;
2289;SDS011;1153;47.986;7.898;2023-12-20T03:54:02;0.40;;;0.20;;
2289;SDS011;1153;47.986;7.898;2023-12-20T03:56:28;0.40;;;0.20;;
2289;SDS011;1153;47.986;7.898;2023-12-20T03:58:53;0.50;;;0.20;;
2289;SDS011;1153;47.986;7.898;2023-12-20T04:01:18;0.40;;;0.20;;
2289;SDS011;1153;47.986;7.898;2023-12-20T04:03:43;0.40;;;0.20;;
2289;SDS011;1153;47.986;7.898;2023-12-20T04:06:08;0.40;;;0.15;;
2289;SDS011;1153;47.986;7.898;2023-12-20T04:08:34;0.40;;;0.20;;
2289;SDS011;1153;47.986;7.898;2023-12-20T04:11:00;0.30;;;0.10;;
2289;SDS011;1153;47.986;7.898;2023-12-20T04:13:25;0.40;;;0.20;;
2289;SDS011;1153;47.986;7.898;2023-12-20T04:15:50;0.40;;;0.20;;
2289;SDS011;1153;47.986;7.898;2023-12-20T04:18:16;0.40;;;0.20;;
2289;SDS011;1153;47.986;7.898;2023-12-20T04:20:41;0.57;;;0.20;;
2289;SDS011;1153;47.986;7.898;2023-12-20T04:23:06;0.30;;;0.10;;
2289;SDS011;1153;47.986;7.898;2023-12-20T04:25:32;0.70;;;0.20;;
2289;SDS011;1153;47.986;7.898;2023-12-20T04:27:57;0.38;;;0.10;;
2289;SDS011;1153;47.986;7.898;2023-12-20T04:30:22;0.30;;;0.20;;
2289;SDS011;1153;47.986;7.898;2023-12-20T04:32:47;0.40;;;0.10;;
2289;SDS011;1153;47.986;7.898;2023-12-20T04:35:12;0.50;;;0.15;;
2289;SDS011;1153;47.986;7.898;2023-12-20T04:37:37;0.40;;;0.10;;
2289;SDS011;1153;47.986;7.898;2023-12-20T04:40:03;0.40;;;0.20;;
2289;SDS011;1153;47.986;7.898;2023-12-20T04:42:30;0.30;;;0.10;;
2289;SDS011;1153;47.986;7.898;2023-12-20T04:44:55;0.50;;;0.20;;
2289;SDS011;1153;47.986;7.898;2023-12-20T04:47:20;0.30;;;0.10;;
2289;SDS011;1153;47.986;7.898;2023-12-20T04:49:45;0.40;;;0.20;;
2289;SDS011;1153;47.986;7.898;2023-12-20T04:52:10;0.50;;;0.13;;
2289;SDS011;1153;47.986;7.898;2023-12-20T04:54:36;0.40;;;0.20;;
2289;SDS011;1153;47.986;7.898;2023-12-20T04:57:01;0.40;;;0.10;;
2289;SDS011;1153;47.986;7.898;2023-12-20T04:59:27;0.40;;;0.20;;
2289;SDS011;1153;47.986;7.898;2023-12-20T05:01:52;0.40;;;0.10;;
2289;SDS011;1153;47.986;7.898;2023-12-20T05:04:17;0.40;;;0.10;;
2289;SDS011;1153;47.986;7.898;2023-12-20T05:06:42;0.60;;;0.20;;
2289;SDS011;1153;47.986;7.898;2023-12-20T05:09:07;0.40;;;0.20;;
2289;SDS011;1153;47.986;7.898;2023-12-20T05:11:32;0.40;;;0.10;;
2289;SDS011;1153;47.986;7.898;2023-12-20T05:13:58;0.40;;;0.10;;
2289;SDS011;1153;47.986;7.898;2023-12-20T05:16:23;0.30;;;0.10;;
2289;SDS011;1153;47.986;7.898;2023-12-20T05:18:48;3.40;;;0.20;;
2289;SDS011;1153;47.986;7.898;2023-12-20T05:21:14;0.40;;;0.20;;
2289;SDS011;1153;47.986;7.898;2023-12-20T05:23:40;0.40;;;0.20;;
2289;SDS011;1153;47.986;7.898;2023-12-20T05:26:05;0.40;;;0.20;;
2289;SDS011;1153;47.986;7.898;2023-12-20T05:28:30;0.40;;;0.20;;
2289;SDS011;1153;47.986;7.898;2023-12-20T05:30:55;1.85;;;0.20;;
2289;SDS011;1153;47.986;7.898;2023-12-20T05:33:20;0.30;;;0.10;;
2289;SDS011;1153;47.986;7.898;2023-12-20T05:35:45;0.40;;;0.20;;
2289;SDS011;1153;47.986;7.898;2023-12-20T05:38:11;0.40;;;0.20;;
2289;SDS011;1153;47.986;7.898;2023-12-20T05:40:36;0.60;;;0.20;;
2289;SDS011;1153;47.986;7.898;2023-12-20T05:43:01;0.40;;;0.20;;
2289;SDS011;1153;47.986;7.898;2023-12-20T05:45:27;0.40;;;0.20;;
2289;SDS011;1153;47.986;7.898;2023-12-20T05:47:52;0.40;;;0.20;;
2289;SDS011;1153;47.986;7.898;2023-12-20T05:50:17;0.40;;;0.20;;
2289;SDS011;1153;47.986;7.898;2023-12-20T05:52:42;0.43;;;0.20;;
2289;SDS011;1153;47.986;7.898;2023-12-20T05:55:07;0.40;;;0.20;;
2289;SDS011;1153;47.986;7.898;2023-12-20T05:57:33;0.40;;;0.20;;
2289;SDS011;1153;47.986;7.898;2023-12-20T05:59:58;0.47;;;0.20;;
2289;SDS011;1153;47.986;7.898;2023-12-20T06:02:23;0.50;;;0.20;;
2289;SDS011;1153;47.986;7.898;2023-12-20T06:04:48;0.40;;;0.20;;
2289;SDS011;1153;47.986;7.898;2023-12-20T06:07:13;0.40;;;0.20;;
2289;SDS011;1153;47.986;7.898;2023-12-20T06:09:39;0.40;;;0.20;;
2289;SDS011;1153;47.986;7.898;2023-12-20T06:12:04;0.40;;;0.20;;
2289;SDS011;1153;47.986;7.898;2023-12-20T06:14:29;0.50;;;0.20;;
2289;SDS011;1153;47.986;7.898;2023-12-20T06:16:55;0.40;;;0.20;;
2289;SDS011;1153;47.986;7.898;2023-12-20T06:19:21;0.40;;;0.20;;
2289;SDS011;1153;47.986;7.898;2023-12-20T06:21:46;0.40;;;0.20;;
2289;SDS011;1153;47.986;7.898;2023-12-20T06:24:11;0.40;;;0.10;;
2289;SDS011;1153;47.986;7.898;2023-12-20T06:26:36;0.40;;;0.20;;
2289;SDS011;1153;47.986;7.898;2023-12-20T06:29:01;0.40;;;0.20;;
2289;SDS011;1153;47.986;7.898;2023-12-20T06:31:27;0.60;;;0.20;;
2289;SDS011;1153;47.986;7.898;2023-12-20T06:33:52;1.07;;;0.20;;
2289;SDS011;1153;47.986;7.898;2023-12-20T06:36:22;0.40;;;0.20;;
2289;SDS011;1153;47.986;7.898;2023-12-20T06:38:47;0.40;;;0.20;;
2289;SDS011;1153;47.986;7.898;2023-12-20T06:41:13;0.40;;;0.20;;
2289;SDS011;1153;47.986;7.898;2023-12-20T06:43:38;0.33;;;0.20;;
2289;SDS011;1153;47.986;7.898;2023-12-20T06:46:03;0.40;;;0.20;;
2289;SDS011;1153;47.986;7.898;2023-12-20T06:48:29;0.40;;;0.20;;
2289;SDS011;1153;47.986;7.898;2023-12-20T06:50:54;1.57;;;0.20;;
2289;SDS011;1153;47.986;7.898;2023-12-20T06:53:19;1.47;;;0.20;;
2289;SDS011;1153;47.986;7.898;2023-12-20T06:55:44;0.40;;;0.20;;
2289;SDS011;1153;47.986;7.898;2023-12-20T06:58:09;0.50;;;0.20;;
2289;SDS011;1153;47.986;7.898;2023-12-20T07:00:35;1.53;;;0.20;;
2289;SDS011;1153;47.986;7.898;2023-12-20T07:03:00;0.40;;;0.20;;
2289;SDS011;1153;47.986;7.898;2023-12-20T07:05:25;0.50;;;0.20;;
2289;SDS011;1153;47.986;7.898;2023-12-20T07:07:50;0.57;;;0.20;;
2289;SDS011;1153;47.986;7.898;2023-12-20T07:10:15;0.50;;;0.20;;
2289;SDS011;1153;47.986;7.898;2023-12-20T07:12:40;0.60;;;0.20;;
2289;SDS011;1153;47.986;7.898;2023-12-20T07:15:06;0.60;;;0.20;;
2289;SDS011;1153;47.986;7.898;2023-12-20T07:17:32;0.40;;;0.20;;
2289;SDS011;1153;47.986;7.898;2023-12-20T07:19:58;0.50;;;0.30;;
2289;SDS011;1153;47.986;7.898;2023-12-20T07:22:23;0.40;;;0.20;;
2289;SDS011;1153;47.986;7.898;2023-12-20T07:24:48;0.40;;;0.20;;
2289;SDS011;1153;47.986;7.898;2023-12-20T07:27:14;0.30;;;0.20;;
2289;SDS011;1153;47.986;7.898;2023-12-20T07:29:39;0.50;;;0.22;;
2289;SDS011;1153;47.986;7.898;2023-12-20T07:32:05;0.40;;;0.20;;
2289;SDS011;1153;47.986;7.898;2023-12-20T07:34:30;0.60;;;0.20;;
2289;SDS011;1153;47.986;7.898;2023-12-20T07:36:55;0.50;;;0.22;;
2289;SDS011;1153;47.986;7.898;2023-12-20T07:39:20;0.50;;;0.28;;
2289;SDS011;1153;47.986;7.898;2023-12-20T07:41:50;0.47;;;0.20;;
2289;SDS011;1153;47.986;7.898;2023-12-20T07:44:15;0.50;;;0.20;;
2289;SDS011;1153;47.986;7.898;2023-12-20T07:46:40;0.70;;;0.30;;
2289;SDS011;1153;47.986;7.898;2023-12-20T07:49:06;0.60;;;0.30;;
2289;SDS011;1153;47.986;7.898;2023-12-20T07:51:31;0.53;;;0.20;;
2289;SDS011;1153;47.986;7.898;2023-12-20T07:53:56;1.07;;;0.60;;
2289;SDS011;1153;47.986;7.898;2023-12-20T07:56:21;0.95;;;0.30;;
2289;SDS011;1153;47.986;7.898;2023-12-20T07:58:46;0.50;;;0.20;;
2289;SDS011;1153;47.986;7.898;2023-12-20T08:01:13;0.50;;;0.23;;
2289;SDS011;1153;47.986;7.898;2023-12-20T08:03:38;0.40;;;0.20;;
2289;SDS011;1153;47.986;7.898;2023-12-20T08:06:04;0.80;;;0.30;;
2289;SDS011;1153;47.986;7.898;2023-12-20T08:08:29;1.10;;;0.40;;
2289;SDS011;1153;47.986;7.898;2023-12-20T08:10:54;0.60;;;0.33;;
2289;SDS011;1153;47.986;7.898;2023-12-20T08:13:19;1.00;;;0.57;;
2289;SDS011;1153;47.986;7.898;2023-12-20T08:15:44;1.00;;;0.50;;
2289;SDS011;1153;47.986;7.898;2023-12-20T08:18:10;0.93;;;0.60;;
2289;SDS011;1153;47.986;7.898;2023-12-20T08:20:35;1.10;;;0.60;;
2289;SDS011;1153;47.986;7.898;2023-12-20T08:23:00;0.80;;;0.37;;
2289;SDS011;1153;47.986;7.898;2023-12-20T08:25:25;0.60;;;0.30;;
2289;SDS011;1153;47.986;7.898;2023-12-20T08:27:50;0.57;;;0.30;;
2289;SDS011;1153;47.986;7.898;2023-12-20T08:30:16;0.60;;;0.30;;
2289;SDS011;1153;47.986;7.898;2023-12-20T08:32:45;0.93;;;0.50;;
2289;SDS011;1153;47.986;7.898;2023-12-20T08:35:10;0.95;;;0.40;;
2289;SDS011;1153;47.986;7.898;2023-12-20T08:37:36;0.93;;;0.40;;
2289;SDS011;1153;47.986;7.898;2023-12-20T08:40:01;0.60;;;0.30;;
2289;SDS011;1153;47.986;7.898;2023-12-20T08:42:26;0.83;;;0.40;;
2289;SDS011;1153;47.986;7.898;2023-12-20T08:44:56;0.80;;;0.50;;
2289;SDS011;1153;47.986;7.898;2023-12-20T08:47:21;0.60;;;0.30;;
2289;SDS011;1153;47.986;7.898;2023-12-20T08:49:46;0.43;;;0.20;;
2289;SDS011;1153;47.986;7.898;2023-12-20T08:52:11;0.40;;;0.20;;
2289;SDS011;1153;47.986;7.898;2023-12-20T08:54:36;0.50;;;0.20;;
2289;SDS011;1153;47.986;7.898;2023-12-20T08:57:01;0.50;;;0.30;;
2289;SDS011;1153;47.986;7.898;2023-12-20T08:59:27;0.50;;;0.30;;
2289;SDS011;1153;47.986;7.898;2023-12-20T09:01:52;0.53;;;0.30;;
2289;SDS011;1153;47.986;7.898;2023-12-20T09:04:19;1.00;;;0.30;;
2289;SDS011;1153;47.986;7.898;2023-12-20T09:06:45;0.57;;;0.30;;
2289;SDS011;1153;47.986;7.898;2023-12-20T09:09:10;1.17;;;0.33;;
2289;SDS011;1153;47.986;7.898;2023-12-20T09:11:38;0.57;;;0.30;;
2289;SDS011;1153;47.986;7.898;2023-12-20T09:14:03;0.50;;;0.30;;
2289;SDS011;1153;47.986;7.898;2023-12-20T09:16:28;2.17;;;1.90;;
2289;SDS011;1153;47.986;7.898;2023-12-20T09:18:54;0.50;;;0.30;;
2289;SDS011;1153;47.986;7.898;2023-12-20T09:21:19;2.20;;;0.30;;
2289;SDS011;1153;47.986;7.898;2023-12-20T09:23:44;0.70;;;0.40;;
2289;SDS011;1153;47.986;7.898;2023-12-20T09:26:10;0.80;;;0.40;;
2289;SDS011;1153;47.986;7.898;2023-12-20T09:28:35;0.70;;;0.30;;
2289;SDS011;1153;47.986;7.898;2023-12-20T09:31:02;0.60;;;0.30;;
2289;SDS011;1153;47.986;7.898;2023-12-20T09:33:27;2.77;;;0.50;;
2289;SDS011;1153;47.986;7.898;2023-12-20T09:35:52;0.60;;;0.40;;
2289;SDS011;1153;47.986;7.898;2023-12-20T09:38:17;0.83;;;0.40;;
2289;SDS011;1153;47.986;7.898;2023-12-20T09:40:42;0.67;;;0.40;;
2289;SDS011;1153;47.986;7.898;2023-12-20T09:43:09;0.70;;;0.43;;
2289;SDS011;1153;47.986;7.898;2023-12-20T09:45:35;0.60;;;0.40;;
2289;SDS011;1153;47.986;7.898;2023-12-20T09:48:00;1.00;;;0.60;;
2289;SDS011;1153;47.986;7.898;2023-12-20T09:50:26;1.70;;;0.40;;
2289;SDS011;1153;47.986;7.898;2023-12-20T09:52:52;1.20;;;0.57;;
2289;SDS011;1153;47.986;7.898;2023-12-20T09:55:17;1.80;;;0.40;;
2289;SDS011;1153;47.986;7.898;2023-12-20T09:57:44;0.83;;;0.50;;
2289;SDS011;1153;47.986;7.898;2023-12-20T10:00:09;0.90;;;0.70;;
2289;SDS011;1153;47.986;7.898;2023-12-20T10:02:34;2.33;;;0.60;;
2289;SDS011;1153;47.986;7.898;2023-12-20T10:05:03;1.47;;;0.60;;
2289;SDS011;1153;47.986;7.898;2023-12-20T10:07:30;6.40;;;0.67;;
2289;SDS011;1153;47.986;7.898;2023-12-20T10:09:55;1.20;;;0.60;;
2289;SDS011;1153;47.986;7.898;2023-12-20T10:12:21;2.90;;;0.80;;
2289;SDS011;1153;47.986;7.898;2023-12-20T10:14:46;1.20;;;0.80;;
2289;SDS011;1153;47.986;7.898;2023-12-20T10:17:11;3.88;;;0.73;;
2289;SDS011;1153;47.986;7.898;2023-12-20T10:19:37;0.87;;;0.40;;
2289;SDS011;1153;47.986;7.898;2023-12-20T10:22:03;1.10;;;0.60;;
2289;SDS011;1153;47.986;7.898;2023-12-20T10:24:29;2.07;;;0.50;;
2289;SDS011;1153;47.986;7.898;2023-12-20T10:27:04;1.00;;;0.50;;
2289;SDS011;1153;47.986;7.898;2023-12-20T10:29:36;1.00;;;0.50;;
2289;SDS011;1153;47.986;7.898;2023-12-20T10:32:22;0.97;;;0.63;;
2289;SDS011;1153;47.986;7.898;2023-12-20T10:34:47;1.40;;;0.53;;
2289;SDS011;1153;47.986;7.898;2023-12-20T10:37:12;1.45;;;0.60;;
2289;SDS011;1153;47.986;7.898;2023-12-20T10:39:37;3.53;;;0.80;;
2289;SDS011;1153;47.986;7.898;2023-12-20T10:42:03;1.10;;;0.60;;
2289;SDS011;1153;47.986;7.898;2023-12-20T10:44:29;6.30;;;0.50;;
2289;SDS011;1153;47.986;7.898;2023-12-20T10:46:54;3.30;;;0.75;;
2289;SDS011;1153;47.986;7.898;2023-12-20T10:49:23;1.10;;;0.57;;
2289;SDS011;1153;47.986;7.898;2023-12-20T10:51:49;1.00;;;0.90;;
2289;SDS011;1153;47.986;7.898;2023-12-20T10:54:16;0.90;;;0.60;;
2289;SDS011;1153;47.986;7.898;2023-12-20T10:56:41;1.00;;;0.57;;
2289;SDS011;1153;47.986;7.898;2023-12-20T10:59:06;1.10;;;0.60;;
2289;SDS011;1153;47.986;7.898;2023-12-20T11:01:34;1.03;;;0.50;;
2289;SDS011;1153;47.986;7.898;2023-12-20T11:04:00;5.40;;;0.87;;
2289;SDS011;1153;47.986;7.898;2023-12-20T11:06:27;0.97;;;0.70;;
2289;SDS011;1153;47.986;7.898;2023-12-20T11:09:10;8.63;;;0.80;;
2289;SDS011;1153;47.986;7.898;2023-12-20T11:14:07;6.30;;;0.97;;
2289;SDS011;1153;47.986;7.898;2023-12-20T11:16:38;3.87;;;0.90;;
2289;SDS011;1153;47.986;7.898;2023-12-20T11:19:07;1.40;;;0.80;;
2289;SDS011;1153;47.986;7.898;2023-12-20T11:21:32;6.17;;;0.83;;
2289;SDS011;1153;47.986;7.898;2023-12-20T11:23:57;1.87;;;0.80;;
2289;SDS011;1153;47.986;7.898;2023-12-20T11:26:26;3.58;;;0.60;;
2289;SDS011;1153;47.986;7.898;2023-12-20T11:28:52;1.00;;;0.60;;
2289;SDS011;1153;47.986;7.898;2023-12-20T11:31:17;1.00;;;0.60;;
2289;SDS011;1153;47.986;7.898;2023-12-20T11:33:43;2.30;;;0.70;;
2289;SDS011;1153;47.986;7.898;2023-12-20T11:36:16;2.00;;;0.80;;
2289;SDS011;1153;47.986;7.898;2023-12-20T11:38:53;0.93;;;0.60;;
2289;SDS011;1153;47.986;7.898;2023-12-20T11:41:19;0.90;;;0.60;;
2289;SDS011;1153;47.986;7.898;2023-12-20T11:43:46;0.90;;;0.50;;
2289;SDS011;1153;47.986;7.898;2023-12-20T11:46:12;1.60;;;0.77;;
2289;SDS011;1153;47.986;7.898;2023-12-20T11:48:38;2.67;;;0.73;;
2289;SDS011;1153;47.986;7.898;2023-12-20T11:51:10;0.80;;;0.50;;
2289;SDS011;1153;47.986;7.898;2023-12-20T11:53:35;1.93;;;0.53;;
2289;SDS011;1153;47.986;7.898;2023-12-20T11:56:01;2.10;;;0.50;;
2289;SDS011;1153;47.986;7.898;2023-12-20T11:58:28;0.97;;;0.87;;
2289;SDS011;1153;47.986;7.898;2023-12-20T12:00:53;1.03;;;0.50;;
2289;SDS011;1153;47.986;7.898;2023-12-20T12:03:18;0.93;;;0.60;;
2289;SDS011;1153;47.986;7.898;2023-12-20T12:05:45;0.80;;;0.40;;
2289;SDS011;1153;47.986;7.898;2023-12-20T12:08:11;1.60;;;0.60;;
2289;SDS011;1153;47.986;7.898;2023-12-20T12:10:36;7.63;;;0.50;;
2289;SDS011;1153;47.986;7.898;2023-12-20T12:13:01;2.23;;;0.50;;
2289;SDS011;1153;47.986;7.898;2023-12-20T12:15:26;5.43;;;0.50;;
2289;SDS011;1153;47.986;7.898;2023-12-20T12:17:55;0.70;;;0.50;;
2289;SDS011;1153;47.986;7.898;2023-12-20T12:20:21;1.00;;;0.40;;
2289;SDS011;1153;47.986;7.898;2023-12-20T12:22:46;1.10;;;0.50;;
2289;SDS011;1153;47.986;7.898;2023-12-20T12:25:22;1.30;;;0.40;;
2289;SDS011;1153;47.986;7.898;2023-12-20T12:27:47;2.00;;;0.30;;
2289;SDS011;1153;47.986;7.898;2023-12-20T12:30:12;2.17;;;0.40;;
2289;SDS011;1153;47.986;7.898;2023-12-20T12:32:38;0.77;;;0.40;;
2289;SDS011;1153;47.986;7.898;2023-12-20T12:35:04;0.80;;;0.40;;
2289;SDS011;1153;47.986;7.898;2023-12-20T12:37:31;8.53;;;0.40;;
2289;SDS011;1153;47.986;7.898;2023-12-20T12:39:56;0.87;;;0.37;;
2289;SDS011;1153;47.986;7.898;2023-12-20T12:42:21;0.53;;;0.30;;
2289;SDS011;1153;47.986;7.898;2023-12-20T12:44:50;1.97;;;0.60;;
2289;SDS011;1153;47.986;7.898;2023-12-20T12:47:15;1.58;;;0.65;;
2289;SDS011;1153;47.986;7.898;2023-12-20T12:49:40;2.15;;;0.30;;
2289;SDS011;1153;47.986;7.898;2023-12-20T12:52:06;0.83;;;0.40;;
2289;SDS011;1153;47.986;7.898;2023-12-20T12:54:31;1.97;;;0.40;;
2289;SDS011;1153;47.986;7.898;2023-12-20T12:56:56;0.80;;;0.30;;
2289;SDS011;1153;47.986;7.898;2023-12-20T12:59:22;0.50;;;0.30;;
2289;SDS011;1153;47.986;7.898;2023-12-20T13:01:47;2.20;;;0.40;;
2289;SDS011;1153;47.986;7.898;2023-12-20T13:04:13;0.60;;;0.30;;
2289;SDS011;1153;47.986;7.898;2023-12-20T13:06:38;8.07;;;0.40;;
2289;SDS011;1153;47.986;7.898;2023-12-20T13:09:04;2.30;;;0.30;;
2289;SDS011;1153;47.986;7.898;2023-12-20T13:11:30;2.40;;;0.40;;
2289;SDS011;1153;47.986;7.898;2023-12-20T13:13:56;0.90;;;0.30;;
2289;SDS011;1153;47.986;7.898;2023-12-20T13:16:22;0.70;;;0.30;;
2289;SDS011;1153;47.986;7.898;2023-12-20T13:18:47;1.10;;;0.30;;
2289;SDS011;1153;47.986;7.898;2023-12-20T13:21:13;0.50;;;0.30;;
2289;SDS011;1153;47.986;7.898;2023-12-20T13:23:38;2.33;;;0.77;;
2289;SDS011;1153;47.986;7.898;2023-12-20T13:26:03;3.55;;;0.30;;
2289;SDS011;1153;47.986;7.898;2023-12-20T13:28:28;0.70;;;0.30;;
2289;SDS011;1153;47.986;7.898;2023-12-20T13:30:53;1.00;;;0.40;;
2289;SDS011;1153;47.986;7.898;2023-12-20T13:33:18;1.17;;;0.30;;
2289;SDS011;1153;47.986;7.898;2023-12-20T13:35:44;2.47;;;0.40;;
2289;SDS011;1153;47.986;7.898;2023-12-20T13:38:09;0.52;;;0.20;;
2289;SDS011;1153;47.986;7.898;2023-12-20T13:40:34;11.70;;;0.40;;
2289;SDS011;1153;47.986;7.898;2023-12-20T13:42:59;1.20;;;0.40;;
2289;SDS011;1153;47.986;7.898;2023-12-20T13:45:24;0.60;;;0.30;;
2289;SDS011;1153;47.986;7.898;2023-12-20T13:47:50;2.10;;;0.40;;
2289;SDS011;1153;47.986;7.898;2023-12-20T13:50:15;1.53;;;0.20;;
2289;SDS011;1153;47.986;7.898;2023-12-20T13:52:40;0.90;;;0.40;;
2289;SDS011;1153;47.986;7.898;2023-12-20T13:55:06;2.47;;;0.20;;
2289;SDS011;1153;47.986;7.898;2023-12-20T13:57:32;0.60;;;0.30;;
2289;SDS011;1153;47.986;7.898;2023-12-20T13:59:58;1.50;;;0.40;;
2289;SDS011;1153;47.986;7.898;2023-12-20T14:02:23;0.60;;;0.30;;
2289;SDS011;1153;47.986;7.898;2023-12-20T14:04:48;1.90;;;0.30;;
2289;SDS011;1153;47.986;7.898;2023-12-20T14:07:13;4.50;;;0.40;;
2289;SDS011;1153;47.986;7.898;2023-12-20T14:09:39;3.90;;;0.30;;
2289;SDS011;1153;47.986;7.898;2023-12-20T14:12:04;1.63;;;0.30;;
2289;SDS011;1153;47.986;7.898;2023-12-20T14:14:30;1.43;;;0.37;;
2289;SDS011;1153;47.986;7.898;2023-12-20T14:16:55;0.85;;;0.30;;
2289;SDS011;1153;47.986;7.898;2023-12-20T14:19:20;0.70;;;0.40;;
2289;SDS011;1153;47.986;7.898;2023-12-20T14:21:45;0.73;;;0.40;;
2289;SDS011;1153;47.986;7.898;2023-12-20T14:24:12;1.00;;;0.40;;
2289;SDS011;1153;47.986;7.898;2023-12-20T14:26:39;1.80;;;0.40;;
2289;SDS011;1153;47.986;7.898;2023-12-20T14:29:04;6.43;;;0.70;;
2289;SDS011;1153;47.986;7.898;2023-12-20T14:31:32;1.57;;;0.40;;
2289;SDS011;1153;47.986;7.898;2023-12-20T14:33:57;0.73;;;0.40;;
2289;SDS011;1153;47.986;7.898;2023-12-20T14:36:23;7.03;;;0.70;;
2289;SDS011;1153;47.986;7.898;2023-12-20T14:38:48;2.20;;;0.40;;
2289;SDS011;1153;47.986;7.898;2023-12-20T14:41:15;1.97;;;0.40;;
2289;SDS011;1153;47.986;7.898;2023-12-20T14:43:40;1.70;;;0.40;;
2289;SDS011;1153;47.986;7.898;2023-12-20T14:46:05;1.07;;;0.50;;
2289;SDS011;1153;47.986;7.898;2023-12-20T14:48:30;2.30;;;0.50;;
2289;SDS011;1153;47.986;7.898;2023-12-20T14:50:56;1.27;;;0.43;;
2289;SDS011;1153;47.986;7.898;2023-12-20T14:53:21;1.08;;;0.52;;
2289;SDS011;1153;47.986;7.898;2023-12-20T14:55:46;1.00;;;0.50;;
2289;SDS011;1153;47.986;7.898;2023-12-20T14:58:12;1.00;;;0.40;;
2289;SDS011;1153;47.986;7.898;2023-12-20T15:00:37;1.23;;;0.40;;
2289;SDS011;1153;47.986;7.898;2023-12-20T15:03:02;2.85;;;0.50;;
2289;SDS011;1153;47.986;7.898;2023-12-20T15:05:29;4.00;;;0.60;;
2289;SDS011;1153;47.986;7.898;2023-12-20T15:07:54;2.73;;;0.53;;